createdAt,value
2017-01-02T00:02:59.845Z,4.73
2017-01-02T00:06:05.233Z,4.77
2017-01-02T00:09:10.653Z,4.75
2017-01-02T00:12:16.029Z,4.86
2017-01-02T00:15:21.628Z,4.88
2017-01-02T00:21:27.832Z,4.85
2017-01-02T00:24:33.535Z,4.78
2017-01-02T00:27:44.299Z,4.79
2017-01-02T00:30:44.595Z,4.79
2017-01-02T00:33:55.293Z,4.80
2017-01-02T00:37:00.856Z,4.81
2017-01-02T00:40:06.445Z,4.83
2017-01-02T00:43:11.836Z,4.84
2017-01-02T00:46:12.356Z,4.86
2017-01-02T00:49:23.113Z,4.90
2017-01-02T00:52:28.432Z,4.86
2017-01-02T00:55:28.776Z,4.83
2017-01-02T00:58:34.452Z,4.80
2017-01-02T01:01:40.065Z,4.84
2017-01-02T01:04:50.941Z,4.87
2017-01-02T01:07:56.287Z,4.85
2017-01-02T01:11:01.736Z,4.88
2017-01-02T01:14:06.664Z,4.91
2017-01-02T01:17:12.121Z,4.86
2017-01-02T01:20:17.466Z,4.85
2017-01-02T01:23:17.796Z,4.81
2017-01-02T01:26:23.504Z,4.82
2017-01-02T01:29:29.264Z,4.85
2017-01-02T01:32:39.955Z,4.83
2017-01-02T01:35:40.390Z,4.81
2017-01-02T01:38:46.146Z,4.83
2017-01-02T01:41:52.080Z,4.82
2017-01-02T01:44:57.776Z,4.83
2017-01-02T01:48:03.513Z,4.82
2017-01-02T01:51:14.231Z,4.84
2017-01-02T01:54:19.644Z,4.88
2017-01-02T01:57:25.095Z,4.87
2017-01-02T02:00:30.644Z,4.88
2017-01-02T02:03:36.093Z,4.92
2017-01-02T02:06:36.471Z,4.95
2017-01-02T02:09:42.162Z,4.93
2017-01-02T02:12:47.826Z,4.96
2017-01-02T02:15:53.563Z,4.91
2017-01-02T02:18:59.938Z,4.93
2017-01-02T02:22:10.698Z,4.96
2017-01-02T02:25:16.021Z,4.96
2017-01-02T02:28:16.393Z,4.96
2017-01-02T02:31:27.117Z,4.97
2017-01-02T02:34:27.630Z,4.98
2017-01-02T02:37:33.347Z,4.92
2017-01-02T02:40:44.106Z,4.92
2017-01-02T02:43:44.508Z,4.91
2017-01-02T02:46:55.377Z,4.96
2017-01-02T02:50:00.796Z,4.95
2017-01-02T02:53:01.130Z,4.91
2017-01-02T02:56:11.871Z,4.92
2017-01-02T02:59:12.261Z,4.95
2017-01-02T03:02:17.947Z,4.95
2017-01-02T03:05:23.540Z,4.96
2017-01-02T03:08:34.375Z,4.90
2017-01-02T03:11:39.304Z,4.92
2017-01-02T03:14:44.747Z,4.94
2017-01-02T03:17:50.202Z,4.95
2017-01-02T03:20:55.835Z,4.93
2017-01-02T03:24:01.360Z,4.98
2017-01-02T03:27:06.750Z,4.99
2017-01-02T03:30:12.299Z,4.97
2017-01-02T03:33:17.945Z,4.94
2017-01-02T03:36:18.280Z,5.00
2017-01-02T03:39:24.044Z,5.06
2017-01-02T03:42:34.892Z,5.15
2017-01-02T03:45:40.331Z,5.17
2017-01-02T03:48:45.799Z,5.06
2017-01-02T03:51:51.153Z,5.00
2017-01-02T03:54:51.512Z,4.92
2017-01-02T03:58:02.261Z,4.90
2017-01-02T04:01:07.569Z,4.84
2017-01-02T04:04:13.069Z,4.80
2017-01-02T04:07:13.404Z,4.81
2017-01-02T04:10:24.131Z,4.86
2017-01-02T04:13:29.594Z,4.88
2017-01-02T04:16:35.106Z,4.93
2017-01-02T04:19:40.538Z,4.95
2017-01-02T04:22:46.025Z,4.93
2017-01-02T04:25:51.471Z,4.91
2017-01-02T04:28:51.960Z,4.88
2017-01-02T04:31:57.468Z,4.83
2017-01-02T04:35:08.345Z,4.73
2017-01-02T04:38:08.917Z,4.69
2017-01-02T04:41:19.829Z,4.60
2017-01-02T04:44:25.184Z,4.53
2017-01-02T04:47:25.507Z,4.51
2017-01-02T04:50:36.281Z,4.48
2017-01-02T04:53:41.617Z,4.39
2017-01-02T04:56:47.001Z,4.37
2017-01-02T04:59:47.483Z,4.30
2017-01-02T05:02:53.109Z,4.23
2017-01-02T05:05:58.856Z,4.19
2017-01-02T05:09:04.488Z,4.21
2017-01-02T05:12:11.246Z,4.18
2017-01-02T05:15:21.865Z,4.17
2017-01-02T05:18:22.091Z,4.14
2017-01-02T05:21:32.813Z,4.13
2017-01-02T05:24:38.170Z,4.07
2017-01-02T05:27:43.602Z,4.05
2017-01-02T05:30:44.008Z,4.06
2017-01-02T05:33:54.796Z,4.03
2017-01-02T05:36:55.136Z,3.98
2017-01-02T05:40:05.855Z,3.93
2017-01-02T05:43:11.249Z,3.84
2017-01-02T05:46:16.602Z,3.83
2017-01-02T05:49:16.943Z,3.80
2017-01-02T05:52:22.690Z,3.78
2017-01-02T05:55:28.339Z,3.73
2017-01-02T05:58:38.921Z,3.64
2017-01-02T06:01:39.228Z,3.65
2017-01-02T06:04:44.818Z,3.71
2017-01-02T06:07:50.620Z,3.74
2017-01-02T06:11:01.125Z,3.75
2017-01-02T06:14:06.450Z,3.69
2017-01-02T06:20:17.236Z,3.58
2017-01-02T06:23:22.470Z,3.62
2017-01-02T06:26:27.805Z,3.64
2017-01-02T06:29:33.155Z,3.69
2017-01-02T06:32:38.531Z,3.77
2017-01-02T06:35:38.907Z,3.85
2017-01-02T06:38:44.564Z,3.87
2017-01-02T06:41:55.487Z,3.87
2017-01-02T06:45:00.665Z,3.88
2017-01-02T06:48:01.150Z,3.86
2017-01-02T06:51:11.794Z,3.86
2017-01-02T06:54:17.228Z,3.90
2017-01-02T06:57:17.625Z,3.90
2017-01-02T07:00:23.378Z,3.93
2017-01-02T07:03:34.099Z,3.94
2017-01-02T07:06:34.528Z,3.96
2017-01-02T07:09:45.320Z,3.95
2017-01-02T07:12:50.603Z,3.93
2017-01-02T07:15:55.947Z,3.95
2017-01-02T07:19:01.337Z,4.02
2017-01-02T07:22:06.628Z,4.06
2017-01-02T07:25:06.853Z,4.07
2017-01-02T07:28:17.610Z,4.11
2017-01-02T07:31:22.875Z,4.12
2017-01-02T07:34:28.467Z,4.14
2017-01-02T07:37:33.600Z,4.09
2017-01-02T07:40:38.997Z,4.10
2017-01-02T07:46:49.361Z,4.03
2017-01-02T07:49:49.752Z,3.96
2017-01-02T07:56:01.814Z,3.83
2017-01-02T07:59:07.271Z,3.76
2017-01-02T08:02:12.548Z,3.76
2017-01-02T08:05:12.981Z,3.75
2017-01-02T08:08:23.497Z,3.71
2017-01-02T08:11:28.594Z,3.71
2017-01-02T08:14:33.870Z,3.67
2017-01-02T08:17:34.104Z,3.62
2017-01-02T08:20:44.850Z,3.58
2017-01-02T08:23:49.872Z,3.61
2017-01-02T08:26:50.026Z,3.60
2017-01-02T08:30:00.699Z,3.61
2017-01-02T08:33:05.927Z,3.59
2017-01-02T08:36:11.187Z,3.57
2017-01-02T08:39:16.193Z,3.53
2017-01-02T08:42:21.477Z,3.53
2017-01-02T08:45:26.189Z,3.57
2017-01-02T08:48:31.527Z,3.57
2017-01-02T08:51:36.846Z,3.60
2017-01-02T08:54:42.103Z,3.62
2017-01-02T08:57:47.350Z,3.62
2017-01-02T09:00:52.704Z,3.69
2017-01-02T09:03:57.930Z,3.72
2017-01-02T09:07:03.267Z,3.74
2017-01-02T09:10:08.192Z,3.80
2017-01-02T09:13:13.458Z,3.86
2017-01-02T09:16:18.547Z,3.89
2017-01-02T09:19:23.878Z,3.90
2017-01-02T09:22:23.955Z,3.89
2017-01-02T09:25:29.673Z,3.95
2017-01-02T09:28:40.399Z,3.94
2017-01-02T09:31:40.711Z,3.96
2017-01-02T09:34:51.395Z,4.00
2017-01-02T09:37:56.729Z,4.06
2017-01-02T09:41:02.074Z,4.10
2017-01-02T09:44:07.318Z,4.12
2017-01-02T09:47:12.784Z,4.14
2017-01-02T09:50:18.213Z,4.20
2017-01-02T09:53:23.520Z,4.24
2017-01-02T09:56:28.916Z,4.27
2017-01-02T10:02:34.767Z,4.30
2017-01-02T10:05:45.554Z,4.24
2017-01-02T10:08:50.773Z,4.26
2017-01-02T10:11:51.074Z,4.29
2017-01-02T10:15:01.906Z,4.31
2017-01-02T10:18:02.173Z,4.32
2017-01-02T10:21:12.965Z,4.33
2017-01-02T10:24:18.416Z,4.37
2017-01-02T10:27:18.730Z,4.35
2017-01-02T10:30:29.459Z,4.33
2017-01-02T10:33:29.817Z,4.35
2017-01-02T10:36:40.560Z,4.38
2017-01-02T10:39:45.904Z,4.43
2017-01-02T10:42:51.065Z,4.50
2017-01-02T10:45:51.354Z,4.57
2017-01-02T10:49:01.714Z,4.63
2017-01-02T10:52:07.186Z,4.75
2017-01-02T10:55:07.411Z,4.84
2017-01-02T10:58:13.079Z,4.94
2017-01-02T11:01:18.868Z,5.01
2017-01-02T11:04:29.826Z,4.98
2017-01-02T11:10:40.868Z,4.86
2017-01-02T11:13:41.304Z,4.84
2017-01-02T11:16:47.116Z,4.84
2017-01-02T11:19:57.820Z,4.82
2017-01-02T11:23:02.858Z,4.83
2017-01-02T11:26:03.167Z,4.83
2017-01-02T11:29:13.809Z,4.78
2017-01-02T11:32:19.115Z,4.72
2017-01-02T11:35:24.347Z,4.70
2017-01-02T11:38:24.727Z,4.64
2017-01-02T11:41:35.352Z,4.59
2017-01-02T11:44:35.646Z,4.55
2017-01-02T11:47:46.442Z,4.52
2017-01-02T11:50:51.685Z,4.48
2017-01-02T11:53:57.062Z,4.41
2017-01-02T11:57:02.470Z,4.35
2017-01-02T12:00:02.787Z,4.30
2017-01-02T12:03:13.496Z,4.28
2017-01-02T12:06:18.818Z,4.30
2017-01-02T12:09:19.098Z,4.26
2017-01-02T12:12:24.888Z,4.23
2017-01-02T12:15:30.497Z,4.18
2017-01-02T12:18:36.136Z,4.11
2017-01-02T12:21:46.406Z,4.05
2017-01-02T12:24:51.611Z,4.00
2017-01-02T12:27:51.723Z,3.97
2017-01-02T12:31:02.396Z,3.96
2017-01-02T12:34:02.156Z,3.95
2017-01-02T12:37:12.838Z,3.94
2017-01-02T12:40:18.164Z,3.97
2017-01-02T12:43:18.414Z,3.99
2017-01-02T12:46:29.134Z,4.06
2017-01-02T12:49:29.446Z,4.05
2017-01-02T12:52:40.236Z,4.02
2017-01-02T12:55:45.548Z,4.02
2017-01-02T12:58:45.887Z,4.02
2017-01-02T13:01:56.351Z,4.02
2017-01-02T13:04:56.681Z,4.03
2017-01-02T13:08:07.353Z,4.04
2017-01-02T13:11:07.637Z,4.08
2017-01-02T13:14:13.247Z,4.11
2017-01-02T13:17:23.942Z,4.12
2017-01-02T13:20:24.225Z,4.12
2017-01-02T13:23:35.024Z,4.15
2017-01-02T13:26:35.368Z,4.17
2017-01-02T13:29:46.093Z,4.16
2017-01-02T13:32:46.413Z,4.17
2017-01-02T13:35:51.979Z,4.19
2017-01-02T13:39:02.758Z,4.18
2017-01-02T13:42:03.036Z,4.21
2017-01-02T13:45:08.702Z,4.25
2017-01-02T13:48:19.359Z,4.25
2017-01-02T13:51:24.700Z,4.22
2017-01-02T13:54:29.741Z,4.15
2017-01-02T13:57:30.097Z,4.09
2017-01-02T14:00:35.714Z,4.07
2017-01-02T14:03:46.345Z,4.00
2017-01-02T14:06:46.539Z,3.93
2017-01-02T14:09:57.314Z,3.87
2017-01-02T14:13:02.561Z,3.82
2017-01-02T14:19:13.511Z,3.68
2017-01-02T14:22:18.837Z,3.67
2017-01-02T14:25:24.053Z,3.66
2017-01-02T14:28:29.321Z,3.61
2017-01-02T14:31:34.631Z,3.55
2017-01-02T14:34:39.829Z,3.51
2017-01-02T14:40:50.577Z,3.47
2017-01-02T14:43:50.823Z,3.40
2017-01-02T14:46:56.282Z,3.38
2017-01-02T14:50:01.992Z,3.33
2017-01-02T14:53:12.754Z,3.23
2017-01-02T14:56:18.248Z,3.18
2017-01-02T14:59:23.704Z,3.18
2017-01-02T15:02:29.101Z,3.09
2017-01-02T15:05:34.363Z,3.02
2017-01-02T15:08:34.600Z,2.95
2017-01-02T15:11:43.417Z,2.92
2017-01-02T15:14:48.646Z,2.88
2017-01-02T15:17:53.798Z,2.85
2017-01-02T15:20:58.827Z,2.87
2017-01-02T15:23:58.731Z,2.84
2017-01-02T15:27:08.591Z,2.75
2017-01-02T15:29:56.833Z,2.67
2017-01-02T15:33:00.135Z,2.64
2017-01-02T15:36:00.378Z,2.63
2017-01-02T15:39:11.014Z,2.60
2017-01-02T15:42:16.358Z,2.56
2017-01-02T15:45:21.444Z,2.52
2017-01-02T15:48:21.556Z,2.51
2017-01-02T15:51:32.000Z,2.48
2017-01-02T15:54:37.181Z,2.43
2017-01-02T15:57:37.468Z,2.40
2017-01-02T16:00:48.169Z,2.39
2017-01-02T16:03:53.475Z,2.40
2017-01-02T16:06:53.850Z,2.43
2017-01-02T16:10:04.481Z,2.40
2017-01-02T16:13:09.705Z,2.37
2017-01-02T16:16:14.869Z,2.32
2017-01-02T16:19:14.954Z,2.31
2017-01-02T16:22:20.455Z,2.38
2017-01-02T16:25:30.711Z,2.34
2017-01-02T16:28:30.907Z,2.31
2017-01-02T16:31:36.289Z,2.39
2017-01-02T16:34:46.922Z,2.40
2017-01-02T16:37:51.556Z,2.29
2017-01-02T16:40:56.797Z,2.24
2017-01-02T16:43:56.771Z,2.23
2017-01-02T16:47:07.380Z,2.25
2017-01-02T16:50:12.761Z,2.27
2017-01-02T16:53:18.070Z,2.25
2017-01-02T16:56:18.336Z,2.26
2017-01-02T16:59:24.147Z,2.23
2017-01-02T17:02:34.958Z,2.19
2017-01-02T17:05:40.126Z,2.12
2017-01-02T17:08:40.281Z,2.08
2017-01-02T17:11:50.794Z,2.08
2017-01-02T17:14:56.070Z,2.08
2017-01-02T17:18:01.208Z,2.05
2017-01-02T17:21:06.481Z,2.06
2017-01-02T17:24:11.529Z,2.07
2017-01-02T17:27:16.669Z,2.06
2017-01-02T17:30:21.799Z,2.04
2017-01-02T17:33:27.063Z,2.04
2017-01-02T17:36:32.300Z,2.00
2017-01-02T17:39:32.444Z,2.01
2017-01-02T17:42:43.064Z,1.99
2017-01-02T17:45:48.424Z,1.96
2017-01-02T17:48:53.483Z,1.92
2017-01-02T17:51:58.749Z,1.95
2017-01-02T17:55:03.914Z,1.91
2017-01-02T17:58:08.989Z,1.88
2017-01-02T18:01:14.129Z,1.88
2017-01-02T18:04:19.149Z,1.87
2017-01-02T18:07:19.288Z,1.84
2017-01-02T18:10:29.804Z,1.87
2017-01-02T18:13:35.369Z,1.89
2017-01-02T18:19:46.239Z,1.91
2017-01-02T18:22:51.433Z,1.90
2017-01-02T18:25:56.494Z,1.90
2017-01-02T18:29:01.608Z,1.96
2017-01-02T18:32:02.207Z,1.98
2017-01-02T18:35:07.660Z,1.99
2017-01-02T18:38:18.169Z,1.94
2017-01-02T18:41:18.481Z,1.98
2017-01-02T18:44:29.234Z,1.94
2017-01-02T18:47:34.516Z,2.02
2017-01-02T18:50:34.773Z,2.06
2017-01-02T18:53:45.433Z,2.11
2017-01-02T18:56:45.669Z,2.11
2017-01-02T18:59:51.350Z,2.10
2017-01-02T19:03:01.704Z,2.07
2017-01-02T19:06:06.827Z,2.14
2017-01-02T19:09:12.157Z,2.16
2017-01-02T19:12:17.428Z,2.23
2017-01-02T19:15:22.594Z,2.29
2017-01-02T19:18:27.804Z,2.33
2017-01-02T19:21:33.125Z,2.31
2017-01-02T19:24:33.486Z,2.38
2017-01-02T19:27:44.163Z,2.40
2017-01-02T19:30:49.239Z,2.41
2017-01-02T19:33:49.502Z,2.54
2017-01-02T19:36:52.069Z,2.63
2017-01-02T19:40:05.733Z,2.74
2017-01-02T19:43:10.912Z,2.83
2017-01-02T19:46:16.056Z,2.69
2017-01-02T19:49:16.081Z,2.59
2017-01-02T19:52:26.669Z,2.48
2017-01-02T19:55:31.998Z,2.41
2017-01-02T19:58:37.250Z,2.33
2017-01-02T20:01:37.635Z,2.33
2017-01-02T20:04:43.205Z,2.34
2017-01-02T20:07:53.811Z,2.40
2017-01-02T20:10:59.017Z,2.40
2017-01-02T20:14:04.052Z,2.40
2017-01-02T20:17:09.294Z,2.46
2017-01-02T20:20:14.533Z,2.48
2017-01-02T20:23:19.731Z,2.42
2017-01-02T20:26:20.089Z,2.51
2017-01-02T20:29:30.262Z,2.50
2017-01-02T20:32:35.448Z,2.48
2017-01-02T20:35:40.531Z,2.46
2017-01-02T20:38:40.776Z,2.53
2017-01-02T20:41:46.345Z,2.53
2017-01-02T20:44:52.011Z,2.50
2017-01-02T20:48:02.648Z,2.54
2017-01-02T20:51:07.894Z,2.54
2017-01-02T20:54:13.137Z,2.54
2017-01-02T20:57:18.166Z,2.57
2017-01-02T21:00:23.428Z,2.58
2017-01-02T21:03:28.683Z,2.60
2017-01-02T21:06:33.948Z,2.56
2017-01-02T21:09:34.092Z,2.52
2017-01-02T21:12:39.631Z,2.59
2017-01-02T21:15:45.251Z,2.65
2017-01-02T21:18:56.014Z,2.64
2017-01-02T21:22:00.872Z,2.63
2017-01-02T21:25:01.111Z,2.60
2017-01-02T21:28:06.563Z,2.60
2017-01-02T21:31:17.061Z,2.65
2017-01-02T21:34:22.630Z,2.66
2017-01-02T21:37:27.792Z,2.63
2017-01-02T21:40:32.989Z,2.63
2017-01-02T21:43:38.257Z,2.69
2017-01-02T21:46:43.483Z,2.72
2017-01-02T21:49:44.326Z,2.74
2017-01-02T21:52:54.162Z,2.73
2017-01-02T21:59:05.111Z,2.72
2017-01-02T22:02:10.355Z,2.73
2017-01-02T22:05:15.962Z,2.71
2017-01-02T22:08:20.742Z,2.73
2017-01-02T22:11:26.035Z,2.85
2017-01-02T22:14:26.111Z,2.88
2017-01-02T22:17:36.824Z,2.89
2017-01-02T22:20:37.143Z,2.88
2017-01-02T22:23:47.772Z,2.88
2017-01-02T22:26:48.107Z,2.90
2017-01-02T22:29:58.614Z,2.91
2017-01-02T22:32:59.001Z,2.94
2017-01-02T22:36:04.669Z,2.97
2017-01-02T22:39:15.263Z,2.92
2017-01-02T22:42:15.523Z,2.85
2017-01-02T22:45:26.178Z,2.86
2017-01-02T22:48:31.406Z,2.90
2017-01-02T22:51:36.644Z,2.94
2017-01-02T22:54:37.134Z,2.98
2017-01-02T22:57:42.754Z,2.99
2017-01-02T23:00:53.292Z,3.08
2017-01-02T23:03:53.504Z,3.10
2017-01-02T23:06:59.231Z,3.14
2017-01-02T23:10:04.806Z,3.17
2017-01-02T23:13:15.571Z,3.12
2017-01-02T23:16:20.832Z,3.07
2017-01-02T23:19:26.091Z,2.98
2017-01-02T23:22:31.207Z,2.94
2017-01-02T23:25:36.510Z,2.97
2017-01-02T23:28:41.820Z,2.98
2017-01-02T23:31:46.984Z,2.97
2017-01-02T23:34:47.275Z,3.01
2017-01-02T23:37:52.896Z,2.94
2017-01-02T23:40:58.446Z,2.88
2017-01-02T23:44:08.911Z,2.91
2017-01-02T23:47:14.187Z,2.92
2017-01-02T23:50:19.534Z,2.94
2017-01-02T23:56:30.322Z,3.01
2017-01-02T23:59:30.525Z,3.03
